Time;durP1;ratioP1;P1;durP2;ratioP2;P2;SDS_P1;SDS_P2;PMS_P1;PMS_P2;Temp;Humidity;BMP_temperature;BMP_pressure;BME280_temperature;BME280_humidity;BME280_pressure;Samples;Min_cycle;Max_cycle;Signal;HPM_P1;HPM_P2
2023/06/19 00:02:20;;;;;;;3.70;3.00;;;23.10;99.90;;;;;;1904527;74;21107;-81
2023/06/19 00:05:13;;;;;;;4.00;3.60;;;23.00;99.90;;;;;;1907419;74;21073;-81
2023/06/19 00:08:06;;;;;;;3.90;3.22;;;23.10;99.90;;;;;;1915278;74;21127;-81
2023/06/19 00:10:57;;;;;;;3.67;3.33;;;23.10;99.90;;;;;;1910509;74;21095;-81
2023/06/19 00:16:28;;;;;;;4.33;3.20;;;23.10;99.90;;;;;;1935639;72;22174;-81
2023/06/19 00:19:19;;;;;;;4.00;2.87;;;23.20;99.90;;;;;;1897217;75;21141;-81
2023/06/19 00:22:10;;;;;;;4.40;3.37;;;23.20;99.90;;;;;;1876045;75;21125;-81
2023/06/19 00:27:46;;;;;;;4.70;3.57;;;23.10;99.90;;;;;;1927498;72;28024;-81
2023/06/19 00:30:38;;;;;;;6.12;3.25;;;23.30;99.90;;;;;;1890290;75;21111;-81
2023/06/19 00:33:30;;;;;;;4.08;3.05;;;23.20;99.90;;;;;;1891315;75;21106;-81
2023/06/19 00:36:24;;;;;;;3.33;3.02;;;23.20;99.90;;;;;;1896451;75;21121;-81
2023/06/19 00:39:14;;;;;;;4.33;3.00;;;23.10;99.90;;;;;;1905768;75;21168;-81
2023/06/19 00:42:07;;;;;;;3.55;3.20;;;23.10;99.90;;;;;;1894312;75;21515;-81
2023/06/19 00:44:59;;;;;;;3.40;3.10;;;23.10;99.90;;;;;;1890424;75;21084;-81
2023/06/19 00:47:50;;;;;;;3.80;3.02;;;23.10;99.90;;;;;;1912848;75;21112;-80
2023/06/19 00:56:04;;;;;;;5.53;3.10;;;23.00;99.90;;;;;;1952916;72;22627;-81
2023/06/19 01:01:33;;;;;;;3.83;3.42;;;23.10;99.90;;;;;;1929781;72;22098;-81
2023/06/19 01:07:10;;;;;;;3.42;2.87;;;23.00;99.90;;;;;;1937003;72;22158;-81
2023/06/19 01:12:48;;;;;;;5.90;3.27;;;22.90;99.90;;;;;;1935605;72;22274;-81
2023/06/19 01:15:41;;;;;;;3.75;3.10;;;23.00;99.90;;;;;;1912388;75;21208;-81
2023/06/19 01:21:15;;;;;;;5.15;3.37;;;22.90;99.90;;;;;;1942189;72;22165;-80
2023/06/19 01:24:06;;;;;;;3.58;3.00;;;22.80;99.90;;;;;;1911262;75;21246;-81
2023/06/19 01:29:37;;;;;;;3.50;3.08;;;22.70;99.90;;;;;;1952549;72;22197;-80
2023/06/19 01:35:13;;;;;;;4.10;3.17;;;22.60;99.90;;;;;;1932525;72;22263;-81
2023/06/19 01:38:05;;;;;;;4.67;3.30;;;22.70;99.90;;;;;;1877877;75;21099;-81
2023/06/19 01:40:59;;;;;;;5.15;3.60;;;22.60;99.90;;;;;;1880263;75;21499;-81
2023/06/19 01:46:29;;;;;;;6.97;3.37;;;22.50;99.90;;;;;;1928350;72;22174;-81
2023/06/19 01:49:21;;;;;;;3.60;3.27;;;22.40;99.90;;;;;;1912022;74;21171;-81
2023/06/19 01:52:13;;;;;;;3.65;3.00;;;22.40;99.90;;;;;;1885263;75;21635;-81
2023/06/19 01:57:45;;;;;;;3.85;3.20;;;22.40;99.90;;;;;;1940581;72;22286;-81
2023/06/19 02:00:37;;;;;;;5.47;3.25;;;22.40;99.90;;;;;;1896360;75;21231;-81
2023/06/19 02:03:28;;;;;;;5.10;3.40;;;22.50;99.90;;;;;;1907729;74;21096;-81
2023/06/19 02:06:21;;;;;;;6.62;3.22;;;22.50;99.90;;;;;;1892231;75;21074;-81
2023/06/19 02:09:12;;;;;;;5.20;3.00;;;22.50;99.90;;;;;;1885654;75;21193;-81
2023/06/19 02:12:04;;;;;;;4.72;3.37;;;22.50;99.90;;;;;;1902522;75;21192;-81
2023/06/19 02:17:35;;;;;;;4.08;3.05;;;22.50;99.90;;;;;;1944822;72;22268;-81
2023/06/19 02:20:26;;;;;;;5.12;3.70;;;22.50;99.90;;;;;;1909412;75;21054;-81
2023/06/19 02:26:03;;;;;;;4.67;4.00;;;22.60;99.90;;;;;;1921358;72;28063;-81
2023/06/19 02:28:55;;;;;;;4.12;3.52;;;22.70;99.90;;;;;;1887110;75;21833;-81
2023/06/19 02:31:47;;;;;;;5.17;3.40;;;22.60;99.90;;;;;;1905304;75;21393;-81
2023/06/19 02:34:38;;;;;;;3.37;3.05;;;22.40;99.90;;;;;;1895207;75;21095;-81
2023/06/19 02:37:30;;;;;;;5.67;3.00;;;22.40;99.90;;;;;;1890088;75;21215;-81
2023/06/19 02:40:21;;;;;;;3.52;3.20;;;22.50;99.90;;;;;;1889955;75;21093;-81
2023/06/19 02:43:14;;;;;;;3.75;3.40;;;22.40;99.90;;;;;;1895267;75;21144;-81
2023/06/19 02:46:05;;;;;;;4.65;3.65;;;22.40;99.90;;;;;;1898167;75;21102;-81
2023/06/19 02:48:57;;;;;;;4.47;3.52;;;22.30;99.90;;;;;;1889882;75;21062;-81
2023/06/19 02:51:49;;;;;;;4.37;3.33;;;22.30;99.90;;;;;;1895439;75;21088;-81
2023/06/19 02:54:42;;;;;;;4.72;3.50;;;22.40;99.90;;;;;;1903841;75;21172;-81
2023/06/19 02:57:34;;;;;;;3.80;3.17;;;22.40;99.90;;;;;;1899971;75;21566;-81
2023/06/19 03:00:28;;;;;;;5.17;3.50;;;22.50;99.90;;;;;;1903779;75;21039;-81
2023/06/19 03:03:20;;;;;;;3.80;3.40;;;22.40;99.90;;;;;;1894874;75;21183;-81
2023/06/19 03:06:14;;;;;;;3.70;3.40;;;22.30;99.90;;;;;;1911732;75;21179;-81
2023/06/19 03:09:11;;;;;;;4.03;3.60;;;22.30;99.90;;;;;;1895614;75;21160;-81
2023/06/19 03:11:59;;;;;;;7.20;4.20;;;22.20;99.90;;;;;;1903280;75;21154;-81
2023/06/19 03:14:51;;;;;;;3.98;3.10;;;22.20;99.90;;;;;;1899365;75;21043;-81
2023/06/19 03:17:42;;;;;;;4.15;3.30;;;22.10;99.90;;;;;;1898373;75;21172;-81
2023/06/19 03:20:34;;;;;;;6.45;3.60;;;22.00;99.90;;;;;;1907492;75;21146;-81
2023/06/19 03:23:25;;;;;;;3.80;3.40;;;22.00;99.90;;;;;;1895959;75;21047;-81
2023/06/19 03:26:17;;;;;;;4.83;3.65;;;21.90;99.90;;;;;;1898808;75;21103;-81
2023/06/19 03:29:09;;;;;;;5.30;3.55;;;21.90;99.90;;;;;;1892220;75;21117;-81
2023/06/19 03:32:08;;;;;;;5.15;3.80;;;21.90;99.90;;;;;;1895692;75;21151;-81
2023/06/19 03:35:00;;;;;;;4.95;3.50;;;21.90;99.90;;;;;;1890665;75;21634;-81
2023/06/19 03:37:52;;;;;;;6.37;3.37;;;21.80;99.90;;;;;;1909775;75;21081;-81
2023/06/19 03:40:44;;;;;;;4.35;3.50;;;21.70;99.90;;;;;;1895043;75;21106;-81
2023/06/19 03:43:35;;;;;;;5.00;3.65;;;21.70;99.90;;;;;;1904656;75;21180;-81
2023/06/19 03:46:26;;;;;;;5.87;3.52;;;21.70;99.90;;;;;;1886544;75;21059;-81
2023/06/19 03:49:18;;;;;;;4.12;3.45;;;21.80;99.90;;;;;;1883813;75;21156;-81
2023/06/19 03:52:11;;;;;;;4.58;4.00;;;21.80;99.90;;;;;;1887842;75;21526;-78
2023/06/19 03:55:03;;;;;;;4.15;3.75;;;21.80;99.90;;;;;;1912179;75;21130;-77
2023/06/19 03:57:55;;;;;;;5.10;3.55;;;21.90;99.90;;;;;;1889900;75;21192;-78
2023/06/19 04:00:46;;;;;;;5.75;3.98;;;21.90;99.90;;;;;;1888600;75;21181;-77
2023/06/19 04:06:16;;;;;;;10.18;4.08;;;21.90;99.90;;;;;;1941763;72;22110;-78
2023/06/19 04:09:08;;;;;;;7.00;3.80;;;21.90;99.90;;;;;;1918338;73;21183;-77
2023/06/19 04:14:39;;;;;;;4.97;3.60;;;21.90;99.90;;;;;;1931900;72;22220;-78
2023/06/19 04:17:32;;;;;;;4.53;3.35;;;21.90;99.90;;;;;;1910041;75;21087;-78
2023/06/19 04:23:06;;;;;;;5.65;3.77;;;21.80;99.90;;;;;;1943885;72;22289;-78
2023/06/19 04:25:57;;;;;;;5.20;3.77;;;21.90;99.90;;;;;;1911876;75;21595;-78
2023/06/19 04:28:48;;;;;;;5.37;3.92;;;21.90;99.90;;;;;;1904962;75;21106;-78
2023/06/19 04:31:40;;;;;;;4.62;3.52;;;21.90;99.90;;;;;;1905196;75;21106;-77
2023/06/19 04:37:23;;;;;;;5.70;3.72;;;21.90;99.90;;;;;;1936429;72;22789;-77
2023/06/19 04:40:15;;;;;;;6.47;3.80;;;21.90;99.90;;;;;;1912668;74;21129;-77
2023/06/19 04:43:06;;;;;;;5.28;3.58;;;21.90;99.90;;;;;;1901889;74;21133;-78
2023/06/19 04:48:36;;;;;;;4.45;3.70;;;21.80;99.90;;;;;;1940984;72;22582;-77
2023/06/19 04:51:29;;;;;;;5.80;3.67;;;21.80;99.90;;;;;;1889828;75;21181;-77
2023/06/19 04:54:21;;;;;;;4.58;3.80;;;21.90;99.90;;;;;;1889322;75;21063;-78
2023/06/19 04:57:12;;;;;;;6.85;3.90;;;21.90;99.90;;;;;;1896958;75;21132;-77
2023/06/19 05:00:06;;;;;;;8.00;3.95;;;21.90;99.90;;;;;;1904400;75;21220;-77
2023/06/19 05:03:00;;;;;;;7.58;3.83;;;22.00;99.90;;;;;;1889175;75;21134;-77
2023/06/19 05:05:52;;;;;;;4.87;3.90;;;22.00;99.90;;;;;;1887412;75;21839;-77
2023/06/19 05:11:22;;;;;;;5.12;3.70;;;22.00;99.90;;;;;;1943865;72;22189;-80
2023/06/19 05:16:54;;;;;;;7.28;3.77;;;22.10;99.90;;;;;;1924703;72;22678;-80
2023/06/19 05:22:26;;;;;;;6.35;4.40;;;22.00;99.90;;;;;;1938716;72;22215;-80
2023/06/19 05:25:18;;;;;;;6.60;4.00;;;22.00;99.90;;;;;;1907560;74;21106;-80
2023/06/19 05:30:50;;;;;;;8.53;4.00;;;22.20;99.90;;;;;;1927456;72;22165;-80
2023/06/19 05:36:36;;;;;;;5.97;3.98;;;22.20;99.90;;;;;;1944099;72;22238;-78
2023/06/19 05:42:14;;;;;;;5.47;3.60;;;22.20;99.90;;;;;;1940915;72;22466;-80
2023/06/19 05:45:06;;;;;;;5.80;4.15;;;22.20;99.90;;;;;;1919975;73;21111;-81
2023/06/19 05:47:57;;;;;;;6.17;4.17;;;22.10;99.90;;;;;;1931464;73;21120;-81
2023/06/19 05:50:49;;;;;;;6.03;4.10;;;22.10;99.90;;;;;;1928394;73;21195;-80
2023/06/19 05:56:20;;;;;;;5.47;3.92;;;22.00;99.90;;;;;;1935467;72;22653;-79
2023/06/19 05:59:14;;;;;;;6.20;4.00;;;22.00;99.90;;;;;;1899978;75;21098;-79
2023/06/19 06:02:06;;;;;;;7.55;4.80;;;22.00;99.90;;;;;;1896004;75;21168;-79
2023/06/19 06:04:57;;;;;;;5.55;4.10;;;22.10;99.90;;;;;;1900134;75;21214;-79
2023/06/19 06:07:48;;;;;;;4.28;3.80;;;22.10;99.90;;;;;;1907469;75;21168;-79
2023/06/19 06:10:40;;;;;;;7.10;3.95;;;22.10;99.90;;;;;;1902344;75;21086;-79
2023/06/19 06:16:14;;;;;;;6.33;4.08;;;22.20;99.90;;;;;;1948962;72;22160;-78
2023/06/19 06:21:45;;;;;;;7.85;4.53;;;22.30;99.90;;;;;;1955470;72;22687;-79
2023/06/19 06:27:16;;;;;;;7.10;4.15;;;22.40;99.90;;;;;;1946223;72;22152;-79
2023/06/19 06:30:11;;;;;;;4.90;3.80;;;22.40;99.90;;;;;;1924603;73;21206;-79
2023/06/19 06:33:02;;;;;;;7.12;4.15;;;22.50;99.90;;;;;;1920137;73;21253;-80
2023/06/19 06:38:37;;;;;;;5.35;4.25;;;22.50;99.90;;;;;;1942814;72;22135;-79
2023/06/19 06:41:29;;;;;;;5.72;3.75;;;22.50;99.90;;;;;;1919289;73;21200;-79
2023/06/19 06:44:23;;;;;;;5.58;4.10;;;22.50;99.90;;;;;;1922774;73;21108;-79
2023/06/19 06:47:17;;;;;;;5.28;4.40;;;22.50;99.90;;;;;;1938354;73;21070;-80
2023/06/19 06:50:11;;;;;;;4.92;4.37;;;22.50;99.90;;;;;;1925490;73;21082;-80
2023/06/19 06:53:03;;;;;;;6.92;4.15;;;22.50;99.90;;;;;;1919490;73;21157;-80
2023/06/19 06:55:54;;;;;;;7.58;4.35;;;22.40;99.90;;;;;;1916663;75;21149;-79
2023/06/19 06:58:46;;;;;;;7.90;4.92;;;22.20;99.90;;;;;;1916701;75;21203;-79
2023/06/19 07:01:38;;;;;;;6.12;4.47;;;22.10;99.90;;;;;;1917548;73;21179;-79
2023/06/19 07:07:22;;;;;;;7.60;4.53;;;22.00;99.90;;;;;;1941348;72;22166;-80
2023/06/19 07:10:13;;;;;;;9.38;4.45;;;22.00;99.90;;;;;;1910118;74;21154;-82
2023/06/19 07:13:05;;;;;;;8.85;4.60;;;22.00;99.90;;;;;;1888393;75;21145;-81
2023/06/19 07:15:59;;;;;;;9.03;4.70;;;22.00;99.90;;;;;;1904601;74;21250;-81
2023/06/19 07:21:41;;;;;;;7.42;4.40;;;22.00;99.90;;;;;;1932324;72;22169;-79
2023/06/19 07:24:42;;;;;;;7.97;4.47;;;22.00;99.90;;;;;;1890349;74;21174;-81
2023/06/19 07:27:34;;;;;;;6.50;4.80;;;22.00;99.90;;;;;;1907636;75;21094;-80
2023/06/19 07:33:04;;;;;;;10.08;5.15;;;22.20;99.90;;;;;;1940687;72;22234;-79
2023/06/19 07:38:41;;;;;;;7.97;4.65;;;22.20;99.90;;;;;;1944782;72;22284;-79
2023/06/19 07:41:33;;;;;;;7.53;5.20;;;22.30;99.90;;;;;;1903337;75;21128;-79
2023/06/19 07:44:24;;;;;;;9.10;5.47;;;22.40;99.90;;;;;;1892532;75;22225;-79
2023/06/19 07:47:20;;;;;;;7.62;5.00;;;22.30;99.90;;;;;;1902891;75;21086;-79
2023/06/19 07:50:14;;;;;;;8.05;5.37;;;22.40;99.90;;;;;;1890185;75;21071;-79
2023/06/19 07:53:07;;;;;;;10.70;5.40;;;22.40;99.90;;;;;;1899948;75;21066;-80
2023/06/19 07:55:59;;;;;;;9.23;5.55;;;22.60;99.90;;;;;;1895478;75;21164;-79
2023/06/19 08:01:28;;;;;;;8.25;4.95;;;22.70;99.90;;;;;;1939419;72;22256;-80
2023/06/19 08:07:02;;;;;;;9.30;5.80;;;22.80;99.90;;;;;;1928842;72;22165;-79
2023/06/19 08:09:54;;;;;;;10.03;5.72;;;22.90;99.90;;;;;;1903388;75;21179;-79
2023/06/19 08:12:47;;;;;;;8.23;5.50;;;22.90;99.90;;;;;;1884031;75;21152;-80
2023/06/19 08:18:21;;;;;;;8.03;5.05;;;23.10;99.90;;;;;;1932980;72;22251;-80
2023/06/19 08:26:36;;;;;;;9.85;4.80;;;23.20;99.90;;;;;;1941989;72;22220;-80
2023/06/19 08:29:27;;;;;;;6.97;5.05;;;23.20;99.90;;;;;;1926207;73;21145;-80
2023/06/19 08:32:19;;;;;;;7.83;4.60;;;23.20;99.90;;;;;;1916484;73;21131;-80
2023/06/19 08:37:57;;;;;;;6.25;4.90;;;23.30;99.90;;;;;;1942593;72;22073;-79
2023/06/19 08:40:50;;;;;;;7.15;4.55;;;23.30;99.90;;;;;;1907249;74;21125;-79
2023/06/19 08:46:22;;;;;;;7.35;4.53;;;23.50;99.90;;;;;;1930238;72;22102;-80
2023/06/19 08:49:15;;;;;;;7.37;5.67;;;23.70;99.90;;;;;;1885566;75;21176;-80
2023/06/19 08:52:08;;;;;;;7.85;5.92;;;23.80;99.90;;;;;;1893573;75;21161;-80
2023/06/19 08:55:06;;;;;;;7.15;5.87;;;23.90;99.90;;;;;;1890069;75;21090;-80
2023/06/19 09:00:40;;;;;;;9.25;5.17;;;23.80;99.90;;;;;;1943539;72;22150;-80
2023/06/19 09:06:17;;;;;;;9.18;5.85;;;23.70;99.90;;;;;;1935569;72;22271;-80
2023/06/19 09:09:13;;;;;;;8.63;6.47;;;23.70;99.90;;;;;;1897576;75;21056;-80
2023/06/19 09:14:46;;;;;;;11.85;7.30;;;24.00;99.90;;;;;;1938773;72;22181;-80
2023/06/19 09:17:37;;;;;;;9.68;6.40;;;24.20;99.90;;;;;;1894298;75;21115;-80
2023/06/19 09:20:30;;;;;;;7.17;6.20;;;24.40;99.90;;;;;;1890065;75;21111;-82
2023/06/19 09:23:22;;;;;;;8.50;6.03;;;24.60;99.90;;;;;;1884186;75;21245;-80
2023/06/19 09:26:18;;;;;;;8.65;6.55;;;24.90;99.90;;;;;;1894265;75;21118;-80
2023/06/19 09:29:15;;;;;;;8.95;6.05;;;25.20;99.90;;;;;;1894203;75;21072;-80
2023/06/19 09:32:21;;;;;;;8.75;6.45;;;25.40;99.90;;;;;;1856553;77;21175;-80
2023/06/19 09:35:14;;;;;;;10.58;6.53;;;25.60;99.90;;;;;;1891142;75;21092;-81
2023/06/19 09:38:06;;;;;;;11.05;6.60;;;25.80;99.90;;;;;;1885711;75;21172;-80
2023/06/19 09:41:03;;;;;;;7.72;5.97;;;25.90;99.90;;;;;;1882549;75;21205;-80
2023/06/19 09:43:59;;;;;;;8.45;6.25;;;26.30;99.90;;;;;;1877365;75;21164;-80
2023/06/19 09:46:53;;;;;;;7.97;6.42;;;26.30;99.90;;;;;;1873173;75;21198;-80
2023/06/19 09:49:46;;;;;;;7.37;6.00;;;26.40;99.90;;;;;;1886465;75;21563;-81
2023/06/19 09:52:37;;;;;;;6.80;5.97;;;26.40;99.90;;;;;;1883591;75;21122;-80
2023/06/19 09:55:32;;;;;;;7.10;6.40;;;26.60;99.90;;;;;;1895910;75;21235;-80
2023/06/19 09:58:25;;;;;;;6.67;6.03;;;26.60;99.90;;;;;;1878560;76;21645;-80
2023/06/19 10:01:18;;;;;;;7.03;6.05;;;26.50;99.90;;;;;;1888014;75;21221;-80
2023/06/19 10:04:11;;;;;;;7.58;6.42;;;26.50;99.90;;;;;;1883072;75;21106;-80
2023/06/19 10:07:02;;;;;;;12.28;6.35;;;26.40;99.90;;;;;;1882990;75;21073;-80
2023/06/19 10:10:02;;;;;;;7.12;6.42;;;26.30;99.90;;;;;;1903082;75;21213;-81
2023/06/19 10:12:55;;;;;;;6.70;6.00;;;26.00;99.90;;;;;;1836985;78;21066;-80
2023/06/19 10:15:47;;;;;;;8.65;6.85;;;26.10;99.90;;;;;;1887744;75;21005;-80
2023/06/19 10:18:48;;;;;;;7.22;5.95;;;26.10;99.90;;;;;;1894054;75;21731;-80
2023/06/19 10:21:47;;;;;;;7.72;6.35;;;26.20;99.90;;;;;;1893666;75;21150;-80
2023/06/19 10:24:39;;;;;;;6.97;6.28;;;26.30;99.90;;;;;;1893493;75;21127;-80
2023/06/19 10:27:33;;;;;;;7.10;6.00;;;26.30;99.90;;;;;;1871624;77;21745;-80
2023/06/19 10:30:25;;;;;;;7.47;6.60;;;26.50;99.90;;;;;;1886497;75;21135;-80
2023/06/19 10:33:16;;;;;;;7.00;6.30;;;26.50;99.90;;;;;;1882095;75;21173;-80
2023/06/19 10:36:17;;;;;;;7.37;6.65;;;26.50;99.90;;;;;;1882037;75;21088;-80
2023/06/19 10:39:10;;;;;;;7.22;6.42;;;26.30;99.90;;;;;;1882174;75;21126;-80
2023/06/19 10:42:01;;;;;;;8.98;6.97;;;26.40;99.90;;;;;;1885991;75;21116;-80
2023/06/19 10:45:00;;;;;;;9.23;7.22;;;26.20;99.90;;;;;;1885288;75;21103;-80
2023/06/19 10:47:52;;;;;;;7.22;6.55;;;26.10;99.90;;;;;;1872924;75;21126;-80
2023/06/19 10:50:45;;;;;;;9.03;6.70;;;26.10;99.90;;;;;;1893525;75;21159;-80
2023/06/19 10:53:37;;;;;;;7.25;5.78;;;25.90;99.90;;;;;;1856011;77;21207;-80
2023/06/19 10:56:29;;;;;;;9.70;6.22;;;25.70;99.90;;;;;;1889006;75;21121;-80
2023/06/19 10:59:26;;;;;;;9.47;7.00;;;25.50;99.90;;;;;;1871677;75;21166;-80
2023/06/19 11:02:26;;;;;;;9.18;6.50;;;25.50;99.90;;;;;;1871822;77;21073;-81
2023/06/19 11:05:21;;;;;;;7.80;6.90;;;25.50;99.90;;;;;;1871657;75;21112;-80
2023/06/19 11:08:14;;;;;;;8.08;6.92;;;25.40;99.90;;;;;;1873165;75;21054;-80
2023/06/19 11:11:05;;;;;;;9.53;6.60;;;25.40;99.90;;;;;;1885804;75;21114;-80
2023/06/19 11:13:57;;;;;;;6.72;6.08;;;25.60;99.90;;;;;;1884787;75;21587;-80
2023/06/19 11:16:51;;;;;;;7.62;6.37;;;25.70;99.90;;;;;;1882540;75;21563;-80
2023/06/19 11:19:44;;;;;;;7.28;6.05;;;25.70;99.90;;;;;;1878448;75;21237;-80
2023/06/19 11:22:41;;;;;;;5.78;5.08;;;25.70;99.90;;;;;;1871578;77;21229;-80
2023/06/19 11:25:39;;;;;;;5.47;4.97;;;25.70;99.90;;;;;;1889077;75;21123;-80
2023/06/19 11:28:30;;;;;;;5.92;5.08;;;25.80;99.90;;;;;;1884365;75;21106;-80
2023/06/19 11:31:27;;;;;;;5.55;5.05;;;25.90;99.90;;;;;;1882223;75;21105;-80
2023/06/19 11:34:19;;;;;;;5.50;5.00;;;26.10;99.90;;;;;;1900860;75;21135;-80
2023/06/19 11:37:15;;;;;;;6.00;5.17;;;26.10;99.90;;;;;;1891864;75;21450;-80
2023/06/19 11:40:17;;;;;;;5.12;4.62;;;26.20;99.90;;;;;;1887862;75;21217;-80
2023/06/19 11:43:09;;;;;;;5.75;4.37;;;26.40;99.90;;;;;;1849145;77;21126;-80
2023/06/19 11:46:05;;;;;;;4.97;4.08;;;26.60;99.90;;;;;;1895577;75;21142;-80
2023/06/19 11:48:59;;;;;;;5.60;4.35;;;26.70;99.90;;;;;;1857487;77;21590;-80
2023/06/19 11:51:53;;;;;;;5.08;4.30;;;26.80;99.90;;;;;;1893715;75;21133;-80
2023/06/19 11:54:45;;;;;;;4.67;4.28;;;27.00;99.90;;;;;;1887584;75;21213;-80
2023/06/19 11:57:36;;;;;;;5.75;4.45;;;27.00;99.90;;;;;;1857141;77;21138;-80
2023/06/19 12:00:28;;;;;;;5.92;4.55;;;27.00;99.90;;;;;;1893178;75;21114;-80
2023/06/19 12:03:19;;;;;;;4.67;4.28;;;27.20;99.90;;;;;;1871937;75;21192;-80
2023/06/19 12:06:11;;;;;;;4.67;4.28;;;27.30;99.90;;;;;;1886944;75;21134;-80
2023/06/19 12:09:05;;;;;;;5.53;4.60;;;27.50;99.90;;;;;;1848039;77;21183;-80
2023/06/19 12:11:57;;;;;;;4.60;4.20;;;27.50;99.90;;;;;;1875363;75;21110;-80
2023/06/19 12:14:48;;;;;;;5.03;4.20;;;27.50;99.90;;;;;;1893081;75;21051;-80
2023/06/19 12:17:40;;;;;;;4.40;4.08;;;27.50;99.90;;;;;;1889927;75;21143;-80
2023/06/19 12:20:31;;;;;;;5.05;4.53;;;27.60;99.90;;;;;;1871480;77;21138;-81
2023/06/19 12:23:23;;;;;;;5.33;4.10;;;27.60;99.90;;;;;;1893035;75;21071;-80
2023/06/19 12:26:15;;;;;;;5.62;4.05;;;27.70;99.90;;;;;;1892961;75;22413;-79
2023/06/19 12:29:07;;;;;;;5.72;4.30;;;27.80;99.90;;;;;;1891371;75;21169;-80
2023/06/19 12:32:02;;;;;;;5.85;4.40;;;27.70;99.90;;;;;;1888465;75;21121;-80
2023/06/19 12:34:54;;;;;;;5.05;4.47;;;27.80;99.90;;;;;;1846894;77;21081;-80
2023/06/19 12:37:45;;;;;;;4.42;4.03;;;27.90;99.90;;;;;;1882019;75;21198;-81
2023/06/19 12:40:37;;;;;;;6.25;4.58;;;28.10;99.90;;;;;;1882249;75;21098;-81
2023/06/19 12:46:09;;;;;;;4.90;4.40;;;28.30;99.90;;;;;;1943842;72;22249;-81
2023/06/19 12:49:01;;;;;;;5.08;4.22;;;28.20;99.90;;;;;;1906168;75;21572;-81
2023/06/19 12:51:54;;;;;;;5.37;4.20;;;28.20;99.90;;;;;;1905254;75;21056;-81
2023/06/19 12:54:46;;;;;;;4.80;4.25;;;28.40;99.90;;;;;;1884132;76;21133;-81
2023/06/19 12:57:37;;;;;;;4.90;4.40;;;28.50;99.90;;;;;;1906197;75;21102;-80
2023/06/19 13:00:29;;;;;;;5.67;4.50;;;28.50;99.90;;;;;;1911875;75;21755;-80
2023/06/19 13:03:20;;;;;;;5.33;4.83;;;28.60;99.90;;;;;;1894541;75;21121;-80
2023/06/19 13:06:12;;;;;;;5.05;4.55;;;28.70;99.90;;;;;;1901637;75;21658;-80
2023/06/19 13:09:04;;;;;;;4.97;4.42;;;28.80;99.90;;;;;;1895898;75;21111;-80
2023/06/19 13:11:57;;;;;;;5.83;4.65;;;29.00;99.90;;;;;;1894736;75;21091;-80
2023/06/19 13:14:49;;;;;;;4.37;4.00;;;29.00;99.90;;;;;;1894843;75;21147;-81
2023/06/19 13:17:40;;;;;;;4.85;4.35;;;29.10;99.90;;;;;;1898783;75;21150;-80
2023/06/19 13:20:32;;;;;;;4.45;4.05;;;29.30;99.90;;;;;;1897217;75;21153;-80
2023/06/19 13:23:24;;;;;;;5.85;4.53;;;29.30;99.90;;;;;;1894896;75;21129;-80
2023/06/19 13:26:15;;;;;;;4.70;4.30;;;29.40;99.90;;;;;;1907935;75;21098;-80
2023/06/19 13:31:47;;;;;;;5.08;4.42;;;29.70;99.90;;;;;;1957274;72;22232;-79
2023/06/19 13:34:39;;;;;;;5.05;4.33;;;29.80;99.90;;;;;;1910183;75;21106;-79
2023/06/19 13:37:31;;;;;;;5.12;4.62;;;29.80;99.90;;;;;;1906217;75;21138;-80
2023/06/19 13:40:22;;;;;;;4.83;4.17;;;30.00;99.90;;;;;;1902064;75;21554;-80
2023/06/19 13:43:14;;;;;;;5.03;4.40;;;30.00;99.90;;;;;;1897141;75;21131;-80
2023/06/19 13:46:06;;;;;;;5.10;4.17;;;30.00;99.90;;;;;;1894745;75;21139;-79
2023/06/19 13:48:57;;;;;;;4.28;3.87;;;30.10;99.90;;;;;;1895175;75;21163;-79
2023/06/19 13:51:50;;;;;;;4.45;4.05;;;30.30;99.90;;;;;;1897326;75;21154;-79
2023/06/19 13:54:42;;;;;;;5.75;4.55;;;30.20;99.90;;;;;;1884225;76;21622;-79
2023/06/19 13:57:33;;;;;;;4.22;3.90;;;30.30;99.90;;;;;;1906322;75;21480;-79
2023/06/19 14:00:25;;;;;;;4.78;4.37;;;30.20;99.90;;;;;;1906192;75;21102;-79
2023/06/19 14:03:17;;;;;;;7.28;4.00;;;30.80;99.90;;;;;;1905534;75;21106;-79
2023/06/19 14:06:08;;;;;;;4.25;3.83;;;31.50;99.90;;;;;;1900636;75;21111;-80
2023/06/19 14:09:00;;;;;;;4.33;3.92;;;31.50;99.90;;;;;;1895057;75;21113;-79
2023/06/19 14:11:51;;;;;;;5.12;4.10;;;31.60;99.90;;;;;;1888967;75;21552;-80
2023/06/19 14:14:42;;;;;;;4.20;3.77;;;31.70;99.90;;;;;;1905914;75;21519;-79
2023/06/19 14:17:34;;;;;;;4.17;3.67;;;31.90;99.90;;;;;;1901372;75;21062;-80
2023/06/19 14:20:27;;;;;;;6.35;4.25;;;32.00;99.90;;;;;;1916603;75;21150;-79
2023/06/19 14:23:18;;;;;;;5.42;4.08;;;32.20;99.90;;;;;;1894675;75;21507;-80
2023/06/19 14:26:10;;;;;;;4.97;3.72;;;32.40;99.90;;;;;;1893330;75;21119;-79
2023/06/19 14:29:01;;;;;;;9.48;3.98;;;32.70;99.60;;;;;;1902170;75;21083;-79
2023/06/19 14:31:53;;;;;;;5.10;3.83;;;32.80;98.80;;;;;;1903809;74;21168;-80
2023/06/19 14:34:45;;;;;;;5.00;3.77;;;32.70;98.40;;;;;;1904761;74;21098;-80
2023/06/19 14:37:38;;;;;;;4.30;4.00;;;33.00;96.90;;;;;;1904515;74;21130;-80
2023/06/19 14:40:29;;;;;;;4.92;4.12;;;32.90;96.90;;;;;;1906323;74;21109;-80
2023/06/19 14:43:21;;;;;;;5.97;3.52;;;32.70;96.10;;;;;;1907317;74;21106;-81
2023/06/19 14:46:13;;;;;;;4.70;4.03;;;32.80;95.80;;;;;;1894157;74;21482;-81
2023/06/19 14:49:06;;;;;;;3.77;3.47;;;33.40;95.10;;;;;;1915057;74;21138;-80
2023/06/19 14:51:58;;;;;;;4.62;3.62;;;33.50;94.30;;;;;;1892868;76;21140;-80
2023/06/19 14:54:50;;;;;;;5.12;3.77;;;33.10;93.70;;;;;;1893029;76;21165;-80
2023/06/19 14:57:42;;;;;;;3.98;3.65;;;33.30;93.20;;;;;;1904976;74;21159;-81
2023/06/19 15:00:34;;;;;;;7.60;3.92;;;33.40;92.30;;;;;;1896948;74;21054;-80
2023/06/19 15:03:25;;;;;;;3.92;3.62;;;34.10;91.70;;;;;;1914894;74;21090;-80
2023/06/19 15:06:17;;;;;;;5.90;3.90;;;34.50;90.40;;;;;;1912520;74;21160;-79
2023/06/19 15:09:08;;;;;;;3.92;3.40;;;35.10;89.70;;;;;;1906922;74;21160;-80
2023/06/19 15:12:00;;;;;;;3.83;3.52;;;34.70;88.30;;;;;;1903927;74;21113;-79
2023/06/19 15:14:51;;;;;;;4.22;3.83;;;34.50;87.60;;;;;;1904933;74;21096;-79
2023/06/19 15:17:43;;;;;;;5.95;3.80;;;34.50;86.70;;;;;;1905475;74;21144;-80
2023/06/19 15:20:36;;;;;;;7.37;3.55;;;34.50;86.80;;;;;;1892970;76;21140;-80
2023/06/19 15:23:28;;;;;;;4.17;3.77;;;34.60;85.90;;;;;;1903126;74;21102;-80
2023/06/19 15:26:20;;;;;;;4.60;3.35;;;34.80;86.00;;;;;;1904301;74;21085;-80
2023/06/19 15:31:56;;;;;;;4.60;4.00;;;35.00;84.10;;;;;;1943249;72;27948;-80
2023/06/19 15:34:48;;;;;;;3.92;3.58;;;35.10;82.30;;;;;;1916559;75;21135;-79
2023/06/19 15:37:39;;;;;;;4.45;3.85;;;34.80;82.70;;;;;;1921265;73;21087;-79
2023/06/19 15:40:31;;;;;;;4.00;3.60;;;34.70;82.90;;;;;;1928775;73;21683;-81
2023/06/19 15:43:28;;;;;;;4.37;3.55;;;34.10;83.90;;;;;;1916597;75;21150;-80
2023/06/19 15:46:16;;;;;;;4.25;3.85;;;33.70;85.00;;;;;;1913029;74;21866;-79
2023/06/19 15:49:08;;;;;;;5.65;3.80;;;33.60;85.00;;;;;;1916570;74;21097;-80
2023/06/19 15:52:01;;;;;;;5.45;3.95;;;33.30;85.60;;;;;;1916689;75;21158;-80
2023/06/19 15:54:52;;;;;;;5.80;4.10;;;33.10;86.60;;;;;;1916902;75;21201;-80
2023/06/19 15:57:44;;;;;;;4.00;3.60;;;32.50;87.10;;;;;;1916678;75;21083;-80
2023/06/19 16:00:35;;;;;;;4.20;3.60;;;32.50;87.70;;;;;;1924443;73;21103;-80
2023/06/19 16:03:28;;;;;;;4.30;3.92;;;33.70;85.00;;;;;;1927999;73;21169;-80
2023/06/19 16:06:19;;;;;;;5.12;3.80;;;35.30;81.50;;;;;;1930742;73;21056;-80
2023/06/19 16:09:11;;;;;;;5.00;3.62;;;36.10;78.80;;;;;;1916451;75;21109;-80
2023/06/19 16:12:03;;;;;;;5.05;3.83;;;36.40;76.40;;;;;;1938783;73;21178;-80
2023/06/19 16:14:55;;;;;;;6.22;3.52;;;35.10;78.80;;;;;;1916329;75;21142;-80
2023/06/19 16:17:46;;;;;;;4.85;3.98;;;33.90;81.90;;;;;;1916611;75;21542;-79
2023/06/19 16:20:38;;;;;;;4.30;3.92;;;33.50;83.10;;;;;;1916511;75;21188;-80
2023/06/19 16:23:29;;;;;;;6.35;4.00;;;32.80;85.90;;;;;;1926152;73;21574;-79
2023/06/19 16:26:24;;;;;;;6.55;3.90;;;32.10;87.90;;;;;;1916892;75;21128;-80
2023/06/19 16:29:15;;;;;;;5.58;4.45;;;31.90;89.40;;;;;;1940097;73;21139;-80
2023/06/19 16:32:08;;;;;;;4.28;3.95;;;32.80;87.10;;;;;;1939275;73;21199;-80
2023/06/19 16:35:01;;;;;;;4.28;3.87;;;32.60;87.40;;;;;;1926400;74;21102;-81
2023/06/19 16:37:54;;;;;;;4.60;4.20;;;32.70;88.70;;;;;;1926269;74;21187;-80
2023/06/19 16:40:45;;;;;;;4.75;4.10;;;33.20;87.50;;;;;;1869643;76;21292;-79
2023/06/19 16:43:37;;;;;;;4.67;4.22;;;33.90;85.50;;;;;;1916158;75;21091;-80
2023/06/19 16:46:29;;;;;;;5.03;3.87;;;34.00;85.50;;;;;;1916208;75;21175;-79
2023/06/19 16:49:22;;;;;;;4.55;4.15;;;33.60;85.80;;;;;;1916176;75;21161;-80
2023/06/19 16:52:14;;;;;;;5.12;3.45;;;32.70;87.30;;;;;;1920349;73;21069;-80
2023/06/19 16:55:08;;;;;;;5.45;4.42;;;32.20;88.60;;;;;;1928929;73;21106;-79
2023/06/19 16:58:00;;;;;;;7.65;4.50;;;31.90;90.90;;;;;;1916138;75;21164;-80
2023/06/19 17:00:53;;;;;;;5.37;3.87;;;32.30;90.60;;;;;;1916169;75;21103;-80
2023/06/19 17:03:45;;;;;;;4.22;3.92;;;32.10;90.30;;;;;;1916044;75;21654;-80